createdAt,value
2022-09-06T00:00:51.311Z,59.14
2022-09-06T00:01:51.273Z,59.08
2022-09-06T00:02:51.322Z,58.96
2022-09-06T00:03:51.307Z,59.07
2022-09-06T00:04:51.334Z,58.97
2022-09-06T00:05:51.257Z,59.10
2022-09-06T00:06:51.950Z,59.35
2022-09-06T00:07:51.245Z,59.64
2022-09-06T00:08:51.258Z,59.83
2022-09-06T00:09:51.178Z,59.84
2022-09-06T00:10:51.186Z,59.32
2022-09-06T00:11:51.173Z,59.36
2022-09-06T00:12:52.452Z,59.44
2022-09-06T00:13:51.132Z,59.53
2022-09-06T00:14:51.115Z,59.25
2022-09-06T00:15:51.204Z,59.23
2022-09-06T00:16:51.083Z,58.88
2022-09-06T00:17:51.101Z,58.92
2022-09-06T00:18:51.065Z,59.02
2022-09-06T00:19:51.050Z,59.03
2022-09-06T00:20:51.067Z,59.20
2022-09-06T00:21:51.015Z,59.48
2022-09-06T00:22:51.000Z,59.61
2022-09-06T00:23:50.983Z,59.66
2022-09-06T00:24:51.047Z,59.21
2022-09-06T00:25:50.979Z,59.10
2022-09-06T00:26:50.958Z,59.19
2022-09-06T00:27:50.934Z,59.22
2022-09-06T00:28:50.949Z,58.97
2022-09-06T00:29:50.925Z,59.28
2022-09-06T00:30:50.971Z,59.27
2022-09-06T00:31:50.892Z,59.32
2022-09-06T00:32:50.891Z,59.49
2022-09-06T00:33:50.869Z,59.47
2022-09-06T00:34:50.868Z,59.41
2022-09-06T00:35:50.841Z,59.79
2022-09-06T00:36:50.819Z,59.64
2022-09-06T00:37:50.822Z,59.52
2022-09-06T00:38:50.806Z,59.41
2022-09-06T00:39:50.837Z,59.54
2022-09-06T00:40:50.799Z,59.47
2022-09-06T00:41:50.746Z,59.20
2022-09-06T00:42:50.759Z,59.11
2022-09-06T00:43:50.734Z,59.23
2022-09-06T00:44:50.715Z,59.44
2022-09-06T00:45:50.742Z,59.28
2022-09-06T00:46:50.764Z,59.36
2022-09-06T00:47:51.878Z,59.13
2022-09-06T00:48:50.674Z,59.29
2022-09-06T00:49:50.669Z,59.44
2022-09-06T00:50:50.674Z,59.43
2022-09-06T00:51:50.633Z,59.80
2022-09-06T00:52:50.659Z,59.72
2022-09-06T00:53:50.617Z,59.84
2022-09-06T00:54:50.593Z,59.58
2022-09-06T00:55:50.573Z,59.53
2022-09-06T00:56:50.562Z,59.50
2022-09-06T00:57:50.560Z,59.59
2022-09-06T00:58:50.528Z,59.41
2022-09-06T00:59:50.516Z,59.62
2022-09-06T01:00:50.494Z,59.68
2022-09-06T01:01:50.626Z,59.71
2022-09-06T01:02:50.550Z,59.56
2022-09-06T01:03:50.474Z,59.56
2022-09-06T01:04:50.453Z,59.31
2022-09-06T01:05:54.282Z,59.06
2022-09-06T01:06:50.447Z,59.35
2022-09-06T01:07:50.410Z,59.50
2022-09-06T01:08:50.404Z,59.60
2022-09-06T01:09:50.384Z,59.32
2022-09-06T01:10:50.375Z,59.56
2022-09-06T01:11:50.369Z,59.78
2022-09-06T01:12:50.356Z,59.77
2022-09-06T01:13:50.327Z,59.96
2022-09-06T01:14:50.333Z,60.10
2022-09-06T01:15:50.673Z,60.47
2022-09-06T01:16:50.327Z,60.70
2022-09-06T01:17:50.266Z,61.11
2022-09-06T01:18:50.260Z,61.41
2022-09-06T01:19:50.275Z,61.76
2022-09-06T01:20:50.239Z,62.23
2022-09-06T01:21:50.295Z,62.51
2022-09-06T01:22:50.226Z,62.73
2022-09-06T01:23:50.189Z,63.09
2022-09-06T01:24:50.203Z,63.07
2022-09-06T01:25:50.181Z,63.21
2022-09-06T01:26:50.171Z,63.05
2022-09-06T01:27:50.159Z,63.00
2022-09-06T01:28:50.129Z,62.92
2022-09-06T01:29:50.168Z,63.01
2022-09-06T01:30:50.154Z,62.89
2022-09-06T01:31:50.082Z,62.71
2022-09-06T01:32:50.079Z,62.72
2022-09-06T01:33:50.072Z,62.75
2022-09-06T01:34:50.034Z,62.70
2022-09-06T01:35:50.032Z,62.97
2022-09-06T01:37:09.004Z,62.57
2022-09-06T01:37:49.998Z,62.59
2022-09-06T01:38:50.006Z,62.85
2022-09-06T01:39:50.070Z,62.37
2022-09-06T01:40:49.983Z,62.10
2022-09-06T01:41:49.980Z,62.04
2022-09-06T01:42:51.942Z,61.60
2022-09-06T01:43:49.908Z,61.21
2022-09-06T01:44:49.933Z,61.19
2022-09-06T01:45:49.924Z,61.39
2022-09-06T01:46:49.878Z,61.49
2022-09-06T01:47:49.890Z,61.48
2022-09-06T01:48:49.871Z,61.41
2022-09-06T01:49:49.849Z,61.48
2022-09-06T01:50:49.823Z,61.55
2022-09-06T01:51:49.827Z,61.41
2022-09-06T01:52:49.812Z,61.33
2022-09-06T01:53:49.797Z,61.36
2022-09-06T01:54:49.790Z,61.92
2022-09-06T01:55:49.746Z,61.69
2022-09-06T01:56:49.767Z,61.84
2022-09-06T01:57:49.737Z,61.50
2022-09-06T01:58:49.788Z,61.35
2022-09-06T01:59:49.694Z,61.35
2022-09-06T02:00:49.690Z,61.31
2022-09-06T02:01:49.735Z,61.42
2022-09-06T02:02:49.775Z,61.70
2022-09-06T02:03:49.688Z,61.33
2022-09-06T02:04:49.663Z,61.00
2022-09-06T02:05:49.654Z,61.08
2022-09-06T02:06:49.610Z,60.87
2022-09-06T02:07:49.587Z,61.18
2022-09-06T02:08:49.583Z,61.05
2022-09-06T02:09:49.562Z,61.01
2022-09-06T02:10:49.585Z,60.82
2022-09-06T02:11:49.581Z,60.88
2022-09-06T02:12:49.521Z,61.06
2022-09-06T02:13:49.511Z,61.06
2022-09-06T02:14:49.494Z,61.30
2022-09-06T02:15:49.503Z,61.39
2022-09-06T02:16:49.999Z,61.52
2022-09-06T02:17:49.482Z,61.47
2022-09-06T02:18:49.484Z,61.44
2022-09-06T02:19:49.448Z,60.91
2022-09-06T02:20:49.450Z,60.76
2022-09-06T02:21:49.409Z,60.91
2022-09-06T02:22:52.021Z,61.02
2022-09-06T02:23:49.391Z,61.26
2022-09-06T02:24:49.403Z,61.42
2022-09-06T02:25:49.371Z,61.36
2022-09-06T02:26:49.360Z,61.53
2022-09-06T02:27:49.368Z,61.44
2022-09-06T02:28:49.318Z,61.34
2022-09-06T02:29:49.572Z,61.58
2022-09-06T02:30:49.347Z,61.32
2022-09-06T02:31:49.317Z,61.34
2022-09-06T02:32:49.262Z,61.61
2022-09-06T02:33:49.237Z,61.27
2022-09-06T02:34:49.251Z,61.48
2022-09-06T02:35:49.234Z,61.45
2022-09-06T02:36:49.215Z,61.75
2022-09-06T02:37:49.240Z,61.62
2022-09-06T02:38:49.197Z,61.69
2022-09-06T02:39:49.231Z,61.58
2022-09-06T02:40:49.176Z,61.53
2022-09-06T02:41:49.148Z,61.57
2022-09-06T02:42:49.151Z,61.71
2022-09-06T02:43:49.118Z,61.75
2022-09-06T02:44:49.117Z,61.65
2022-09-06T02:45:49.141Z,61.46
2022-09-06T02:46:49.082Z,61.35
2022-09-06T02:47:49.080Z,61.69
2022-09-06T02:48:49.085Z,62.02
2022-09-06T02:49:49.039Z,61.71
2022-09-06T02:50:49.034Z,61.96
2022-09-06T02:51:49.016Z,62.26
2022-09-06T02:52:49.022Z,62.22
2022-09-06T02:53:49.030Z,61.95
2022-09-06T02:54:48.987Z,61.87
2022-09-06T02:55:48.954Z,62.05
2022-09-06T02:56:52.254Z,61.85
2022-09-06T02:57:52.120Z,62.07
2022-09-06T02:58:48.933Z,62.01
2022-09-06T02:59:48.903Z,62.02
2022-09-06T03:00:48.959Z,62.03
2022-09-06T03:01:48.875Z,61.91
2022-09-06T03:02:48.935Z,62.16
2022-09-06T03:03:48.902Z,62.34
2022-09-06T03:04:48.826Z,62.19
2022-09-06T03:05:48.804Z,62.29
2022-09-06T03:06:48.812Z,62.29
2022-09-06T03:07:48.782Z,62.33
2022-09-06T03:08:48.788Z,62.35
2022-09-06T03:09:48.764Z,62.72
2022-09-06T03:10:48.798Z,62.60
2022-09-06T03:11:48.767Z,62.94
2022-09-06T03:12:48.719Z,62.99
2022-09-06T03:13:48.714Z,62.92
2022-09-06T03:14:53.013Z,62.96
2022-09-06T03:15:48.698Z,63.14
2022-09-06T03:16:48.738Z,63.21
2022-09-06T03:17:48.672Z,63.25
2022-09-06T03:18:48.625Z,63.38
2022-09-06T03:19:48.631Z,63.23
2022-09-06T03:20:48.642Z,63.37
2022-09-06T03:21:48.642Z,63.60
2022-09-06T03:22:48.593Z,63.71
2022-09-06T03:23:48.613Z,63.66
2022-09-06T03:24:48.592Z,63.89
2022-09-06T03:25:48.563Z,63.82
2022-09-06T03:26:48.540Z,64.36
2022-09-06T03:27:48.603Z,64.36
2022-09-06T03:28:48.533Z,64.62
2022-09-06T03:29:48.527Z,64.76
2022-09-06T03:30:48.513Z,64.93
2022-09-06T03:31:48.721Z,64.99
2022-09-06T03:32:48.432Z,65.44
2022-09-06T03:33:48.472Z,65.02
2022-09-06T03:34:48.425Z,65.23
2022-09-06T03:35:48.433Z,65.08
2022-09-06T03:36:48.412Z,65.33
2022-09-06T03:37:48.410Z,65.25
2022-09-06T03:38:48.398Z,65.13
2022-09-06T03:39:48.431Z,65.51
2022-09-06T03:40:48.335Z,65.78
2022-09-06T03:41:48.348Z,65.86
2022-09-06T03:42:51.727Z,65.44
2022-09-06T03:43:48.325Z,65.79
2022-09-06T03:44:48.292Z,65.78
2022-09-06T03:45:48.330Z,65.73
2022-09-06T03:46:48.256Z,65.87
2022-09-06T03:47:48.254Z,66.38
2022-09-06T03:48:48.248Z,66.33
2022-09-06T03:49:48.267Z,66.22
2022-09-06T03:50:48.199Z,66.37
2022-09-06T03:51:48.210Z,66.65
2022-09-06T03:52:48.191Z,66.79
2022-09-06T03:53:48.230Z,66.93
2022-09-06T03:54:48.138Z,67.05
2022-09-06T03:55:48.166Z,67.09
2022-09-06T03:56:48.175Z,67.32
2022-09-06T03:57:48.145Z,67.40
2022-09-06T03:58:48.105Z,67.39
2022-09-06T03:59:48.103Z,67.08
2022-09-06T04:00:48.153Z,67.13
2022-09-06T04:01:48.077Z,67.07
2022-09-06T04:02:48.141Z,67.25
2022-09-06T04:03:48.050Z,67.27
2022-09-06T04:04:48.011Z,67.60
2022-09-06T04:05:48.093Z,67.81
2022-09-06T04:06:47.972Z,67.73
2022-09-06T04:07:47.982Z,67.65
2022-09-06T04:08:47.956Z,67.60
2022-09-06T04:09:47.952Z,67.66
2022-09-06T04:10:47.946Z,67.83
2022-09-06T04:11:47.918Z,67.66
2022-09-06T04:12:47.928Z,67.56
2022-09-06T04:13:47.896Z,67.78
2022-09-06T04:14:47.914Z,67.86
2022-09-06T04:15:47.883Z,68.01
2022-09-06T04:16:48.090Z,68.11
2022-09-06T04:17:51.761Z,68.31
2022-09-06T04:18:47.829Z,68.37
2022-09-06T04:19:47.829Z,68.35
2022-09-06T04:20:47.806Z,68.24
2022-09-06T04:21:47.837Z,68.38
2022-09-06T04:22:47.781Z,68.26
2022-09-06T04:23:47.748Z,68.33
2022-09-06T04:24:47.752Z,68.49
2022-09-06T04:25:47.730Z,68.68
2022-09-06T04:26:47.726Z,68.93
2022-09-06T04:27:47.749Z,69.04
2022-09-06T04:28:47.693Z,69.26
2022-09-06T04:29:47.709Z,69.13
2022-09-06T04:30:47.678Z,69.13
2022-09-06T04:31:47.742Z,69.28
2022-09-06T04:32:47.682Z,69.21
2022-09-06T04:33:47.648Z,69.21
2022-09-06T04:34:47.669Z,69.09
2022-09-06T04:35:47.618Z,69.05
2022-09-06T04:36:48.468Z,69.18
2022-09-06T04:37:47.589Z,69.20
2022-09-06T04:38:47.559Z,69.34
2022-09-06T04:39:47.633Z,69.35
2022-09-06T04:40:47.545Z,69.75
2022-09-06T04:41:47.526Z,69.94
2022-09-06T04:42:47.506Z,70.29
2022-09-06T04:43:47.550Z,70.11
2022-09-06T04:44:47.466Z,70.21
2022-09-06T04:45:47.512Z,69.75
2022-09-06T04:46:47.451Z,69.59
2022-09-06T04:47:47.472Z,69.55
2022-09-06T04:48:47.422Z,69.77
2022-09-06T04:49:47.458Z,69.63
2022-09-06T04:50:47.408Z,69.54
2022-09-06T04:51:47.394Z,69.42
2022-09-06T04:52:47.357Z,69.65
2022-09-06T04:53:47.410Z,69.48
2022-09-06T04:54:47.334Z,69.61
2022-09-06T04:55:47.329Z,69.59
2022-09-06T04:56:47.336Z,69.51
2022-09-06T04:57:51.681Z,69.87
2022-09-06T04:58:47.293Z,69.98
2022-09-06T04:59:47.296Z,69.88
2022-09-06T05:00:47.318Z,69.62
2022-09-06T05:01:47.270Z,69.74
2022-09-06T05:02:47.219Z,69.75
2022-09-06T05:03:47.240Z,69.29
2022-09-06T05:04:47.206Z,69.23
2022-09-06T05:05:47.200Z,69.28
2022-09-06T05:06:47.188Z,69.35
2022-09-06T05:07:47.174Z,69.21
2022-09-06T05:08:47.168Z,69.07
2022-09-06T05:09:47.186Z,69.01
2022-09-06T05:10:47.140Z,68.97
2022-09-06T05:11:47.099Z,68.89
2022-09-06T05:12:47.091Z,69.12
2022-09-06T05:13:47.079Z,69.27
2022-09-06T05:14:47.071Z,69.53
2022-09-06T05:15:47.083Z,69.37
2022-09-06T05:16:47.107Z,69.32
2022-09-06T05:17:47.070Z,69.54
2022-09-06T05:18:47.034Z,69.76
2022-09-06T05:19:46.996Z,69.86
2022-09-06T05:20:46.994Z,69.38
2022-09-06T05:21:46.988Z,69.55
2022-09-06T05:22:47.015Z,69.84
2022-09-06T05:23:46.966Z,69.79
2022-09-06T05:24:46.940Z,69.65
2022-09-06T05:25:46.958Z,69.52
2022-09-06T05:26:46.962Z,69.28
2022-09-06T05:27:46.906Z,69.33
2022-09-06T05:28:46.925Z,69.72
2022-09-06T05:29:46.861Z,69.22
2022-09-06T05:30:46.839Z,69.75
2022-09-06T05:31:47.193Z,69.28
2022-09-06T05:32:51.712Z,69.32
2022-09-06T05:33:46.824Z,69.34
2022-09-06T05:34:46.842Z,69.46
2022-09-06T05:35:46.792Z,68.93
2022-09-06T05:36:46.785Z,68.66
2022-09-06T05:37:46.780Z,68.55
2022-09-06T05:38:46.743Z,68.78
2022-09-06T05:39:46.842Z,68.67
2022-09-06T05:40:46.713Z,68.89
2022-09-06T05:41:46.727Z,68.51
2022-09-06T05:42:46.690Z,68.69
2022-09-06T05:43:46.703Z,68.93
2022-09-06T05:44:46.657Z,68.59
2022-09-06T05:45:46.736Z,68.48
2022-09-06T05:46:46.635Z,68.36
2022-09-06T05:47:46.674Z,68.38
2022-09-06T05:48:46.635Z,68.48
2022-09-06T05:49:46.603Z,68.27
2022-09-06T05:50:46.603Z,68.35
2022-09-06T05:51:46.588Z,68.44
2022-09-06T05:52:46.555Z,68.61
2022-09-06T05:53:46.573Z,68.24
2022-09-06T05:54:46.574Z,68.14
2022-09-06T05:55:46.518Z,67.54
2022-09-06T05:56:46.516Z,67.58
2022-09-06T05:57:46.526Z,67.76
2022-09-06T05:58:46.471Z,67.83
2022-09-06T05:59:46.463Z,67.93
2022-09-06T06:00:46.500Z,68.07
2022-09-06T06:01:46.621Z,67.88
2022-09-06T06:02:46.494Z,67.88
2022-09-06T06:03:46.414Z,67.23
2022-09-06T06:04:46.419Z,67.77
2022-09-06T06:05:46.383Z,67.63
2022-09-06T06:06:46.631Z,67.49
2022-09-06T06:07:46.362Z,67.42
2022-09-06T06:08:46.393Z,67.14
2022-09-06T06:09:46.350Z,66.64
2022-09-06T06:10:46.339Z,66.88
2022-09-06T06:11:46.349Z,66.95
2022-09-06T06:12:52.254Z,66.98
2022-09-06T06:13:46.315Z,67.07
2022-09-06T06:14:46.267Z,67.39
2022-09-06T06:15:46.262Z,66.66
2022-09-06T06:16:46.298Z,66.69
2022-09-06T06:17:46.257Z,66.59
2022-09-06T06:18:50.085Z,66.90
2022-09-06T06:19:46.210Z,66.57
2022-09-06T06:20:46.188Z,65.89
2022-09-06T06:21:46.177Z,66.23
2022-09-06T06:22:46.195Z,66.37
2022-09-06T06:23:46.146Z,66.61
2022-09-06T06:24:46.135Z,66.20
2022-09-06T06:25:46.157Z,66.20
2022-09-06T06:26:46.120Z,65.79
2022-09-06T06:27:46.095Z,65.92
2022-09-06T06:28:46.134Z,66.05
2022-09-06T06:29:46.090Z,65.95
2022-09-06T06:30:46.071Z,65.94
2022-09-06T06:31:46.118Z,65.92
2022-09-06T06:32:46.051Z,65.63
2022-09-06T06:33:46.033Z,65.46
2022-09-06T06:34:46.014Z,65.34
2022-09-06T06:35:45.995Z,65.12
2022-09-06T06:36:45.966Z,64.84
2022-09-06T06:37:45.963Z,64.80
2022-09-06T06:38:45.960Z,65.09
2022-09-06T06:39:46.029Z,65.21
2022-09-06T06:40:45.913Z,65.15
2022-09-06T06:41:45.932Z,64.86
2022-09-06T06:42:45.977Z,64.43
2022-09-06T06:43:45.875Z,64.29
2022-09-06T06:44:45.879Z,64.80
2022-09-06T06:45:45.937Z,64.23
2022-09-06T06:46:46.099Z,64.29
2022-09-06T06:48:00.397Z,64.16
2022-09-06T06:48:45.820Z,64.11
2022-09-06T06:49:45.820Z,64.19
2022-09-06T06:50:45.793Z,63.71
2022-09-06T06:51:45.792Z,63.61
2022-09-06T06:52:45.761Z,63.96
2022-09-06T06:53:45.754Z,63.88
2022-09-06T06:54:45.721Z,64.19
2022-09-06T06:55:45.764Z,64.27
2022-09-06T06:56:45.744Z,64.01
2022-09-06T06:57:45.699Z,63.42
2022-09-06T06:58:45.716Z,63.34
2022-09-06T06:59:45.666Z,63.24
2022-09-06T07:00:45.725Z,62.86
2022-09-06T07:01:45.737Z,63.37
2022-09-06T07:02:45.642Z,63.28
2022-09-06T07:03:45.628Z,63.06
2022-09-06T07:04:45.586Z,62.41
2022-09-06T07:07:45.587Z,63.36
2022-09-06T07:08:45.603Z,62.68
2022-09-06T07:10:45.528Z,62.77
2022-09-06T07:11:45.596Z,62.50
2022-09-06T07:12:45.535Z,62.56
2022-09-06T07:13:45.528Z,62.89
2022-09-06T07:14:45.879Z,62.68
2022-09-06T07:15:45.575Z,62.88
2022-09-06T07:16:45.590Z,62.78
2022-09-06T07:17:45.445Z,62.37
2022-09-06T07:18:45.499Z,62.09
2022-09-06T07:21:45.629Z,62.52
2022-09-06T07:22:45.358Z,62.28
2022-09-06T07:24:45.385Z,61.63
2022-09-06T07:25:45.299Z,61.73
2022-09-06T07:27:49.301Z,61.92
2022-09-06T07:28:45.291Z,62.28
2022-09-06T07:29:45.255Z,62.02
2022-09-06T07:30:45.282Z,61.65
2022-09-06T07:32:45.215Z,61.86
2022-09-06T07:33:45.196Z,62.12
2022-09-06T07:34:45.213Z,62.11
2022-09-06T07:35:45.165Z,61.68
2022-09-06T07:36:45.175Z,61.65
2022-09-06T07:37:45.230Z,61.25
2022-09-06T07:38:45.136Z,61.48
2022-09-06T07:39:45.180Z,61.97
2022-09-06T07:40:45.129Z,62.20
2022-09-06T07:41:45.104Z,61.74
2022-09-06T07:42:45.283Z,61.66
2022-09-06T07:43:45.065Z,62.12
2022-09-06T07:44:45.081Z,61.96
2022-09-06T07:45:45.072Z,61.64
2022-09-06T07:46:45.210Z,61.35
2022-09-06T07:48:00.342Z,62.07
2022-09-06T07:48:45.025Z,61.41
2022-09-06T07:50:49.164Z,60.88
2022-09-06T07:51:45.009Z,60.92
2022-09-06T07:53:44.984Z,60.68
2022-09-06T07:54:44.950Z,60.19
2022-09-06T07:55:44.924Z,60.62
2022-09-06T07:56:44.905Z,60.26
2022-09-06T07:57:44.915Z,60.39
2022-09-06T07:58:44.891Z,60.15
2022-09-06T07:59:44.871Z,60.21
2022-09-06T08:00:44.862Z,60.29
2022-09-06T08:01:44.865Z,61.04
2022-09-06T08:02:44.830Z,60.94
2022-09-06T08:03:44.860Z,61.81
2022-09-06T08:04:47.617Z,61.60
2022-09-06T08:07:44.766Z,60.99
2022-09-06T08:09:00.325Z,60.68
2022-09-06T08:09:44.731Z,61.02
2022-09-06T08:10:44.723Z,60.80
2022-09-06T08:11:44.703Z,60.93
2022-09-06T08:12:44.741Z,60.13
2022-09-06T08:13:44.660Z,59.58
2022-09-06T08:14:44.652Z,60.02
2022-09-06T08:15:44.654Z,59.51
2022-09-06T08:16:44.845Z,59.08
2022-09-06T08:17:44.602Z,59.08
2022-09-06T08:18:44.729Z,58.83
2022-09-06T08:19:44.602Z,60.14
2022-09-06T08:20:44.573Z,59.43
2022-09-06T08:21:44.597Z,60.38
2022-09-06T08:22:44.554Z,61.02
2022-09-06T08:23:44.565Z,59.72
2022-09-06T08:24:44.533Z,59.32
2022-09-06T08:25:44.521Z,59.95
2022-09-06T08:26:44.519Z,60.09
2022-09-06T08:27:44.474Z,60.42
2022-09-06T08:28:44.501Z,60.11
2022-09-06T08:29:44.439Z,59.50
2022-09-06T08:30:44.442Z,59.38
2022-09-06T08:31:44.486Z,59.64
2022-09-06T08:32:44.457Z,59.36
2022-09-06T08:33:44.429Z,59.17
2022-09-06T08:34:44.386Z,59.55
2022-09-06T08:35:44.382Z,59.30
2022-09-06T08:36:44.349Z,59.17
2022-09-06T08:37:44.349Z,58.93
2022-09-06T08:38:44.340Z,58.59
2022-09-06T08:39:44.378Z,58.17
2022-09-06T08:40:44.306Z,57.86
2022-09-06T08:41:44.311Z,58.39
2022-09-06T08:42:44.302Z,57.39
2022-09-06T08:43:44.618Z,57.34
2022-09-06T08:44:59.750Z,57.12
2022-09-06T08:45:44.316Z,57.30
2022-09-06T08:46:44.297Z,57.82
2022-09-06T08:47:44.254Z,58.36
2022-09-06T08:48:44.210Z,59.12
2022-09-06T08:49:44.179Z,58.43
2022-09-06T08:50:44.189Z,57.94
2022-09-06T08:51:44.160Z,58.04
2022-09-06T08:52:54.484Z,58.17
2022-09-06T08:53:44.147Z,56.94
2022-09-06T08:54:44.133Z,55.91
2022-09-06T08:55:44.118Z,55.05
2022-09-06T08:56:44.117Z,54.45
2022-09-06T08:57:44.105Z,54.69
2022-09-06T08:58:44.200Z,54.71
2022-09-06T08:59:44.183Z,54.89
2022-09-06T09:00:44.143Z,54.74
2022-09-06T09:01:44.125Z,54.03
2022-09-06T09:02:44.065Z,55.19
2022-09-06T09:03:44.046Z,54.56
2022-09-06T09:04:44.372Z,54.61
2022-09-06T09:05:44.100Z,55.88
2022-09-06T09:06:43.982Z,55.01
2022-09-06T09:07:43.954Z,55.24
2022-09-06T09:08:43.943Z,54.78
2022-09-06T09:09:43.930Z,54.15
2022-09-06T09:10:43.913Z,53.82
2022-09-06T09:11:43.934Z,53.03
2022-09-06T09:12:43.894Z,55.01
2022-09-06T09:13:43.882Z,55.73
2022-09-06T09:14:43.867Z,55.86
2022-09-06T09:15:43.850Z,56.68
2022-09-06T09:16:43.911Z,56.71
2022-09-06T09:17:43.844Z,58.01
2022-09-06T09:18:43.810Z,57.40
2022-09-06T09:19:43.775Z,57.48
2022-09-06T09:20:43.834Z,57.91
2022-09-06T09:21:43.774Z,57.82
2022-09-06T09:22:43.802Z,58.04
2022-09-06T09:23:43.725Z,58.06
2022-09-06T09:24:43.745Z,58.37
2022-09-06T09:25:43.701Z,58.60
2022-09-06T09:26:43.736Z,58.26
2022-09-06T09:27:43.674Z,57.68
2022-09-06T09:28:43.721Z,57.78
2022-09-06T09:30:49.534Z,58.23
2022-09-06T09:31:43.732Z,58.09
2022-09-06T09:32:43.646Z,57.60
2022-09-06T09:33:43.620Z,57.63
2022-09-06T09:34:43.622Z,58.04
2022-09-06T09:35:43.634Z,57.50
2022-09-06T09:37:48.695Z,57.43
2022-09-06T09:38:43.562Z,57.18
2022-09-06T09:39:43.562Z,57.01
2022-09-06T09:40:43.528Z,56.96
2022-09-06T09:41:43.510Z,56.89
2022-09-06T09:42:43.515Z,56.73
2022-09-06T09:43:43.473Z,57.64
2022-09-06T09:44:43.539Z,57.16
2022-09-06T09:45:43.491Z,56.79
2022-09-06T09:46:43.497Z,57.05
2022-09-06T09:47:43.505Z,56.83
2022-09-06T09:48:43.485Z,56.68
2022-09-06T09:49:43.391Z,57.31
2022-09-06T09:50:43.371Z,56.72
2022-09-06T09:51:43.370Z,57.66
2022-09-06T09:52:43.410Z,56.91
2022-09-06T09:53:43.363Z,57.15
2022-09-06T09:54:43.360Z,57.73
2022-09-06T09:55:43.320Z,57.63
2022-09-06T09:56:43.314Z,57.89
2022-09-06T09:57:43.301Z,57.31
2022-09-06T09:58:43.288Z,57.60
2022-09-06T09:59:43.259Z,57.30
2022-09-06T10:00:43.417Z,57.32
2022-09-06T10:01:43.237Z,58.26
2022-09-06T10:02:43.222Z,57.45
2022-09-06T10:04:43.722Z,57.55
2022-09-06T10:05:45.905Z,56.94
2022-09-06T10:07:43.145Z,57.00
2022-09-06T10:08:43.149Z,56.58
2022-09-06T10:09:43.161Z,57.33
2022-09-06T10:10:43.122Z,57.37
2022-09-06T10:11:43.106Z,57.46
2022-09-06T10:12:43.117Z,57.34
2022-09-06T10:13:43.073Z,56.78
2022-09-06T10:14:43.093Z,57.16
2022-09-06T10:15:43.130Z,57.39
2022-09-06T10:16:43.047Z,56.79
2022-09-06T10:17:43.022Z,56.23
2022-09-06T10:18:43.039Z,56.33
2022-09-06T10:19:43.023Z,55.96
2022-09-06T10:20:43.015Z,56.42
2022-09-06T10:21:42.973Z,56.34
2022-09-06T10:22:42.985Z,56.68
2022-09-06T10:24:42.954Z,56.66
2022-09-06T10:25:44.986Z,56.36
2022-09-06T10:26:42.945Z,56.66
2022-09-06T10:27:55.664Z,56.54
2022-09-06T10:28:42.902Z,56.61
2022-09-06T10:29:42.854Z,56.20
2022-09-06T10:30:42.883Z,56.28
2022-09-06T10:31:42.882Z,56.52
2022-09-06T10:32:42.901Z,56.75
2022-09-06T10:33:42.826Z,56.94
2022-09-06T10:34:42.810Z,56.75
2022-09-06T10:35:42.807Z,57.54
2022-09-06T10:36:42.779Z,57.17
2022-09-06T10:37:42.762Z,57.42
2022-09-06T10:38:42.765Z,57.06
2022-09-06T10:39:42.805Z,56.91
2022-09-06T10:40:42.728Z,57.43
2022-09-06T10:41:42.707Z,57.37
2022-09-06T10:42:42.702Z,57.08
2022-09-06T10:43:42.706Z,57.24
2022-09-06T10:44:42.672Z,56.87
2022-09-06T10:45:42.675Z,58.12
2022-09-06T10:46:42.666Z,57.06
2022-09-06T10:47:42.638Z,57.20
2022-09-06T10:48:42.649Z,56.92
2022-09-06T10:49:42.585Z,56.81
2022-09-06T10:50:42.595Z,56.51
2022-09-06T10:51:42.590Z,56.54
2022-09-06T10:52:42.565Z,55.35
2022-09-06T10:53:42.533Z,56.18
2022-09-06T10:54:42.538Z,56.10
2022-09-06T10:55:46.221Z,55.27
2022-09-06T10:56:42.510Z,54.91
2022-09-06T10:59:42.490Z,54.36
2022-09-06T11:00:42.461Z,53.53
2022-09-06T11:01:42.537Z,54.15
2022-09-06T11:02:42.680Z,54.05
2022-09-06T11:04:00.362Z,53.87
2022-09-06T11:05:42.427Z,53.07
2022-09-06T11:06:42.364Z,52.65
2022-09-06T11:07:42.760Z,52.14
2022-09-06T11:09:42.334Z,52.93
2022-09-06T11:10:42.375Z,53.09
2022-09-06T11:11:42.355Z,52.64
2022-09-06T11:12:42.290Z,53.49
2022-09-06T11:13:42.286Z,53.36
2022-09-06T11:14:42.289Z,53.99
2022-09-06T11:15:42.282Z,53.86
2022-09-06T11:16:42.253Z,52.18
2022-09-06T11:17:42.247Z,53.04
2022-09-06T11:18:42.229Z,51.09
2022-09-06T11:19:42.226Z,50.65
2022-09-06T11:20:42.185Z,49.14
2022-09-06T11:21:42.179Z,48.71
2022-09-06T11:22:42.156Z,48.97
2022-09-06T11:23:42.146Z,48.72
2022-09-06T11:24:42.181Z,49.77
2022-09-06T11:25:42.129Z,49.87
2022-09-06T11:26:42.119Z,49.38
2022-09-06T11:27:42.112Z,49.91
2022-09-06T11:28:42.096Z,50.31
2022-09-06T11:29:42.089Z,50.52
2022-09-06T11:30:42.129Z,50.84
2022-09-06T11:32:42.032Z,52.52
2022-09-06T11:33:42.023Z,52.49
2022-09-06T11:34:42.007Z,51.71
2022-09-06T11:35:42.010Z,51.58
2022-09-06T11:36:41.998Z,52.07
2022-09-06T11:37:42.017Z,52.73
2022-09-06T11:38:41.949Z,53.38
2022-09-06T11:40:41.981Z,54.37
2022-09-06T11:41:41.931Z,54.02
2022-09-06T11:42:41.952Z,53.91
2022-09-06T11:43:41.935Z,53.87
2022-09-06T11:44:41.936Z,54.26
2022-09-06T11:45:41.884Z,53.91
2022-09-06T11:46:41.885Z,53.66
2022-09-06T11:47:41.848Z,53.92
2022-09-06T11:48:41.828Z,54.02
2022-09-06T11:49:41.853Z,54.35
2022-09-06T11:50:41.807Z,54.52
2022-09-06T11:51:41.808Z,54.75
2022-09-06T11:52:41.772Z,54.69
2022-09-06T11:53:41.788Z,53.98
2022-09-06T11:54:41.734Z,54.56
2022-09-06T11:55:41.746Z,54.59
2022-09-06T11:56:41.726Z,54.74
2022-09-06T11:57:41.903Z,54.35
2022-09-06T11:58:41.691Z,54.25
2022-09-06T11:59:41.684Z,54.84
2022-09-06T12:00:41.694Z,54.67
2022-09-06T12:01:41.645Z,55.16
2022-09-06T12:02:41.754Z,54.36
2022-09-06T12:04:41.612Z,53.73
2022-09-06T12:05:41.633Z,53.79
2022-09-06T12:06:41.580Z,52.91
2022-09-06T12:07:41.591Z,53.01
2022-09-06T12:08:41.599Z,52.61
2022-09-06T12:09:41.559Z,52.78
2022-09-06T12:10:41.586Z,52.65
2022-09-06T12:11:41.509Z,52.72
2022-09-06T12:12:41.506Z,52.79
2022-09-06T12:13:41.505Z,51.63
2022-09-06T12:14:41.485Z,52.67
2022-09-06T12:15:41.542Z,52.55
2022-09-06T12:16:41.455Z,52.24
2022-09-06T12:17:41.473Z,52.78
2022-09-06T12:18:41.433Z,53.05
2022-09-06T12:19:44.292Z,53.62
2022-09-06T12:20:41.419Z,53.20
2022-09-06T12:21:41.413Z,52.22
2022-09-06T12:22:41.418Z,53.37
2022-09-06T12:23:41.539Z,53.89
2022-09-06T12:24:41.636Z,53.67
2022-09-06T12:25:41.343Z,54.24
2022-09-06T12:26:41.341Z,55.03
2022-09-06T12:27:41.338Z,53.77
2022-09-06T12:28:41.309Z,54.75
2022-09-06T12:29:41.396Z,54.03
2022-09-06T12:30:41.259Z,53.95
2022-09-06T12:31:41.366Z,54.43
2022-09-06T12:32:41.310Z,53.69
2022-09-06T12:33:41.245Z,53.82
2022-09-06T12:34:41.211Z,53.75
2022-09-06T12:35:56.875Z,53.60
2022-09-06T12:36:41.326Z,53.88
2022-09-06T12:37:41.192Z,53.86
2022-09-06T12:38:41.181Z,53.99
2022-09-06T12:39:41.220Z,54.06
2022-09-06T12:40:41.153Z,53.86
2022-09-06T12:41:43.509Z,53.89
2022-09-06T12:42:41.116Z,53.03
2022-09-06T12:43:41.130Z,53.67
2022-09-06T12:44:41.116Z,52.83
2022-09-06T12:45:41.239Z,53.43
2022-09-06T12:46:41.180Z,53.23
2022-09-06T12:47:41.107Z,52.95
2022-09-06T12:48:41.113Z,52.30
2022-09-06T12:49:41.067Z,52.12
2022-09-06T12:50:41.023Z,51.99
2022-09-06T12:51:41.058Z,51.47
2022-09-06T12:52:41.005Z,51.16
2022-09-06T12:53:41.014Z,51.64
2022-09-06T12:54:40.972Z,50.52
2022-09-06T12:55:41.072Z,50.52
2022-09-06T12:56:40.970Z,49.68
2022-09-06T12:57:40.961Z,50.96
2022-09-06T12:58:40.948Z,51.14
2022-09-06T12:59:40.956Z,51.17
2022-09-06T13:00:40.872Z,50.61
2022-09-06T13:01:41.053Z,51.26
2022-09-06T13:02:40.969Z,50.90
2022-09-06T13:03:40.865Z,51.56
2022-09-06T13:04:40.872Z,51.46
2022-09-06T13:05:40.849Z,50.85
2022-09-06T13:06:40.800Z,49.71
2022-09-06T13:07:40.809Z,49.25
2022-09-06T13:08:40.781Z,48.79
2022-09-06T13:09:40.782Z,48.34
2022-09-06T13:10:40.750Z,48.29
2022-09-06T13:11:40.878Z,49.13
2022-09-06T13:12:40.735Z,49.90
2022-09-06T13:13:40.755Z,50.41
2022-09-06T13:14:40.712Z,50.19
2022-09-06T13:15:40.739Z,50.83
2022-09-06T13:16:40.681Z,51.74